sensor_id;sensor_type;location;lat;lon;timestamp;P1;durP1;ratioP1;P2;durP2;ratioP2
41705;SDS011;27385;51.096;17.190;2023-03-14T00:01:46;22.60;;;6.50;;
41705;SDS011;27385;51.096;17.190;2023-03-14T00:04:17;25.80;;;9.30;;
41705;SDS011;27385;51.096;17.190;2023-03-14T00:06:48;27.10;;;7.90;;
41705;SDS011;27385;51.096;17.190;2023-03-14T00:09:19;26.50;;;9.00;;
41705;SDS011;27385;51.096;17.190;2023-03-14T00:11:51;25.20;;;8.30;;
41705;SDS011;27385;51.096;17.190;2023-03-14T00:14:21;23.70;;;8.50;;
41705;SDS011;27385;51.096;17.190;2023-03-14T00:16:52;31.30;;;9.90;;
41705;SDS011;27385;51.096;17.190;2023-03-14T00:19:23;26.50;;;9.80;;
41705;SDS011;27385;51.096;17.190;2023-03-14T00:21:54;38.10;;;12.30;;
41705;SDS011;27385;51.096;17.190;2023-03-14T00:24:25;50.70;;;20.50;;
41705;SDS011;27385;51.096;17.190;2023-03-14T00:26:59;45.00;;;17.90;;
41705;SDS011;27385;51.096;17.190;2023-03-14T00:29:30;48.80;;;19.00;;
41705;SDS011;27385;51.096;17.190;2023-03-14T00:32:01;44.60;;;19.70;;
41705;SDS011;27385;51.096;17.190;2023-03-14T00:34:33;50.20;;;19.90;;
41705;SDS011;27385;51.096;17.190;2023-03-14T00:37:03;43.40;;;18.50;;
41705;SDS011;27385;51.096;17.190;2023-03-14T00:39:34;39.10;;;16.30;;
41705;SDS011;27385;51.096;17.190;2023-03-14T00:42:05;39.70;;;16.60;;
41705;SDS011;27385;51.096;17.190;2023-03-14T00:44:37;43.00;;;17.90;;
41705;SDS011;27385;51.096;17.190;2023-03-14T00:47:08;37.70;;;16.30;;
41705;SDS011;27385;51.096;17.190;2023-03-14T00:49:39;31.70;;;13.50;;
41705;SDS011;27385;51.096;17.190;2023-03-14T00:52:11;38.40;;;15.70;;
41705;SDS011;27385;51.096;17.190;2023-03-14T00:54:42;34.90;;;13.40;;
41705;SDS011;27385;51.096;17.190;2023-03-14T00:57:13;30.70;;;13.90;;
41705;SDS011;27385;51.096;17.190;2023-03-14T00:59:44;34.00;;;14.40;;
41705;SDS011;27385;51.096;17.190;2023-03-14T01:02:15;32.90;;;14.40;;
41705;SDS011;27385;51.096;17.190;2023-03-14T01:04:48;31.60;;;15.10;;
41705;SDS011;27385;51.096;17.190;2023-03-14T01:07:20;31.40;;;13.10;;
41705;SDS011;27385;51.096;17.190;2023-03-14T01:09:52;24.80;;;9.10;;
41705;SDS011;27385;51.096;17.190;2023-03-14T01:12:23;22.40;;;9.20;;
41705;SDS011;27385;51.096;17.190;2023-03-14T01:14:56;22.50;;;8.60;;
41705;SDS011;27385;51.096;17.190;2023-03-14T01:17:27;22.40;;;7.00;;
41705;SDS011;27385;51.096;17.190;2023-03-14T01:19:58;26.50;;;8.00;;
41705;SDS011;27385;51.096;17.190;2023-03-14T01:22:32;26.00;;;10.20;;
41705;SDS011;27385;51.096;17.190;2023-03-14T01:25:04;31.60;;;12.30;;
41705;SDS011;27385;51.096;17.190;2023-03-14T01:27:38;31.50;;;12.60;;
41705;SDS011;27385;51.096;17.190;2023-03-14T01:30:10;39.20;;;15.80;;
41705;SDS011;27385;51.096;17.190;2023-03-14T01:32:42;39.90;;;17.60;;
41705;SDS011;27385;51.096;17.190;2023-03-14T01:35:13;50.60;;;21.10;;
41705;SDS011;27385;51.096;17.190;2023-03-14T01:37:44;53.50;;;22.10;;
41705;SDS011;27385;51.096;17.190;2023-03-14T01:40:15;45.40;;;19.70;;
41705;SDS011;27385;51.096;17.190;2023-03-14T01:42:47;47.60;;;18.30;;
41705;SDS011;27385;51.096;17.190;2023-03-14T01:48:42;44.00;;;15.80;;
41705;SDS011;27385;51.096;17.190;2023-03-14T01:51:17;41.10;;;15.70;;
41705;SDS011;27385;51.096;17.190;2023-03-14T01:53:54;39.40;;;15.00;;
41705;SDS011;27385;51.096;17.190;2023-03-14T01:56:31;33.80;;;13.40;;
41705;SDS011;27385;51.096;17.190;2023-03-14T01:59:03;35.70;;;13.00;;
41705;SDS011;27385;51.096;17.190;2023-03-14T02:01:36;25.70;;;9.10;;
41705;SDS011;27385;51.096;17.190;2023-03-14T02:04:10;27.00;;;10.00;;
41705;SDS011;27385;51.096;17.190;2023-03-14T02:06:45;26.50;;;8.90;;
41705;SDS011;27385;51.096;17.190;2023-03-14T02:09:19;31.60;;;10.80;;
41705;SDS011;27385;51.096;17.190;2023-03-14T02:11:51;26.00;;;9.30;;
41705;SDS011;27385;51.096;17.190;2023-03-14T02:14:27;30.40;;;9.20;;
41705;SDS011;27385;51.096;17.190;2023-03-14T02:17:02;26.00;;;9.50;;
41705;SDS011;27385;51.096;17.190;2023-03-14T02:19:44;25.30;;;8.90;;
41705;SDS011;27385;51.096;17.190;2023-03-14T02:22:37;23.40;;;9.10;;
41705;SDS011;27385;51.096;17.190;2023-03-14T02:25:11;28.60;;;11.30;;
41705;SDS011;27385;51.096;17.190;2023-03-14T02:27:46;25.00;;;8.90;;
41705;SDS011;27385;51.096;17.190;2023-03-14T02:30:19;19.60;;;6.20;;
41705;SDS011;27385;51.096;17.190;2023-03-14T02:32:52;14.70;;;4.70;;
41705;SDS011;27385;51.096;17.190;2023-03-14T02:35:27;18.50;;;3.80;;
41705;SDS011;27385;51.096;17.190;2023-03-14T02:38:02;14.50;;;3.70;;
41705;SDS011;27385;51.096;17.190;2023-03-14T02:40:41;12.20;;;3.00;;
41705;SDS011;27385;51.096;17.190;2023-03-14T02:43:12;14.70;;;2.90;;
41705;SDS011;27385;51.096;17.190;2023-03-14T02:45:43;7.90;;;2.10;;
41705;SDS011;27385;51.096;17.190;2023-03-14T02:48:16;13.80;;;2.70;;
41705;SDS011;27385;51.096;17.190;2023-03-14T02:50:50;12.10;;;2.10;;
41705;SDS011;27385;51.096;17.190;2023-03-14T02:53:25;9.60;;;2.70;;
41705;SDS011;27385;51.096;17.190;2023-03-14T02:55:57;11.70;;;2.00;;
41705;SDS011;27385;51.096;17.190;2023-03-14T02:58:28;10.10;;;2.70;;
41705;SDS011;27385;51.096;17.190;2023-03-14T03:01:00;12.30;;;2.40;;
41705;SDS011;27385;51.096;17.190;2023-03-14T03:03:31;8.60;;;1.90;;
41705;SDS011;27385;51.096;17.190;2023-03-14T03:06:02;13.00;;;2.20;;
41705;SDS011;27385;51.096;17.190;2023-03-14T03:08:33;11.80;;;1.60;;
41705;SDS011;27385;51.096;17.190;2023-03-14T03:11:05;9.20;;;1.60;;
41705;SDS011;27385;51.096;17.190;2023-03-14T03:13:36;7.10;;;1.40;;
41705;SDS011;27385;51.096;17.190;2023-03-14T03:16:08;10.10;;;1.80;;
41705;SDS011;27385;51.096;17.190;2023-03-14T03:18:41;9.50;;;1.40;;
41705;SDS011;27385;51.096;17.190;2023-03-14T03:21:12;12.10;;;2.00;;
41705;SDS011;27385;51.096;17.190;2023-03-14T03:23:43;5.80;;;1.30;;
41705;SDS011;27385;51.096;17.190;2023-03-14T03:26:14;5.40;;;1.20;;
41705;SDS011;27385;51.096;17.190;2023-03-14T03:28:45;7.30;;;1.50;;
41705;SDS011;27385;51.096;17.190;2023-03-14T03:31:19;11.00;;;2.00;;
41705;SDS011;27385;51.096;17.190;2023-03-14T03:33:49;13.30;;;2.10;;
41705;SDS011;27385;51.096;17.190;2023-03-14T03:36:22;10.90;;;1.30;;
41705;SDS011;27385;51.096;17.190;2023-03-14T03:38:54;5.20;;;1.40;;
41705;SDS011;27385;51.096;17.190;2023-03-14T03:41:25;6.50;;;1.20;;
41705;SDS011;27385;51.096;17.190;2023-03-14T03:43:56;8.60;;;1.40;;
41705;SDS011;27385;51.096;17.190;2023-03-14T03:46:27;10.30;;;2.20;;
41705;SDS011;27385;51.096;17.190;2023-03-14T03:48:58;7.50;;;1.40;;
41705;SDS011;27385;51.096;17.190;2023-03-14T03:51:31;10.70;;;1.50;;
41705;SDS011;27385;51.096;17.190;2023-03-14T03:54:02;6.10;;;1.40;;
41705;SDS011;27385;51.096;17.190;2023-03-14T03:56:33;7.40;;;1.30;;
41705;SDS011;27385;51.096;17.190;2023-03-14T03:59:04;6.20;;;1.30;;
41705;SDS011;27385;51.096;17.190;2023-03-14T04:01:36;11.30;;;1.50;;
41705;SDS011;27385;51.096;17.190;2023-03-14T04:04:06;9.00;;;1.30;;
41705;SDS011;27385;51.096;17.190;2023-03-14T04:06:38;6.80;;;1.20;;
41705;SDS011;27385;51.096;17.190;2023-03-14T04:09:09;5.80;;;1.60;;
41705;SDS011;27385;51.096;17.190;2023-03-14T04:11:41;10.00;;;1.70;;
41705;SDS011;27385;51.096;17.190;2023-03-14T04:14:11;7.80;;;1.40;;
41705;SDS011;27385;51.096;17.190;2023-03-14T04:16:42;6.50;;;1.40;;
41705;SDS011;27385;51.096;17.190;2023-03-14T04:19:13;9.00;;;1.30;;
41705;SDS011;27385;51.096;17.190;2023-03-14T04:21:44;6.90;;;1.40;;
41705;SDS011;27385;51.096;17.190;2023-03-14T04:24:15;9.90;;;1.60;;
41705;SDS011;27385;51.096;17.190;2023-03-14T04:26:46;5.80;;;1.40;;
41705;SDS011;27385;51.096;17.190;2023-03-14T04:29:17;8.40;;;1.70;;
41705;SDS011;27385;51.096;17.190;2023-03-14T04:31:49;8.70;;;1.70;;
41705;SDS011;27385;51.096;17.190;2023-03-14T04:34:20;8.90;;;1.60;;
41705;SDS011;27385;51.096;17.190;2023-03-14T04:36:51;10.20;;;1.60;;
41705;SDS011;27385;51.096;17.190;2023-03-14T04:39:21;6.50;;;1.50;;
41705;SDS011;27385;51.096;17.190;2023-03-14T04:41:52;10.90;;;2.20;;
41705;SDS011;27385;51.096;17.190;2023-03-14T04:44:23;7.30;;;1.50;;
41705;SDS011;27385;51.096;17.190;2023-03-14T04:46:54;7.70;;;1.40;;
41705;SDS011;27385;51.096;17.190;2023-03-14T04:49:25;5.80;;;1.50;;
41705;SDS011;27385;51.096;17.190;2023-03-14T04:51:56;9.10;;;1.80;;
41705;SDS011;27385;51.096;17.190;2023-03-14T04:54:27;8.10;;;1.40;;
41705;SDS011;27385;51.096;17.190;2023-03-14T04:56:58;11.10;;;1.40;;
41705;SDS011;27385;51.096;17.190;2023-03-14T04:59:29;9.00;;;1.50;;
41705;SDS011;27385;51.096;17.190;2023-03-14T05:02:00;6.30;;;1.30;;
41705;SDS011;27385;51.096;17.190;2023-03-14T05:04:31;9.10;;;1.80;;
41705;SDS011;27385;51.096;17.190;2023-03-14T05:07:02;8.50;;;1.70;;
41705;SDS011;27385;51.096;17.190;2023-03-14T05:09:33;7.90;;;1.70;;
41705;SDS011;27385;51.096;17.190;2023-03-14T05:12:04;9.10;;;1.00;;
41705;SDS011;27385;51.096;17.190;2023-03-14T05:14:36;7.10;;;1.20;;
41705;SDS011;27385;51.096;17.190;2023-03-14T05:17:07;8.90;;;2.00;;
41705;SDS011;27385;51.096;17.190;2023-03-14T05:19:38;8.00;;;1.50;;
41705;SDS011;27385;51.096;17.190;2023-03-14T05:22:08;9.60;;;1.80;;
41705;SDS011;27385;51.096;17.190;2023-03-14T05:24:40;9.20;;;1.70;;
41705;SDS011;27385;51.096;17.190;2023-03-14T05:27:11;12.20;;;1.50;;
41705;SDS011;27385;51.096;17.190;2023-03-14T05:29:42;7.10;;;1.50;;
41705;SDS011;27385;51.096;17.190;2023-03-14T05:32:13;8.70;;;1.90;;
41705;SDS011;27385;51.096;17.190;2023-03-14T05:34:43;11.40;;;2.20;;
41705;SDS011;27385;51.096;17.190;2023-03-14T05:37:14;8.80;;;2.00;;
41705;SDS011;27385;51.096;17.190;2023-03-14T05:39:45;6.80;;;1.40;;
41705;SDS011;27385;51.096;17.190;2023-03-14T05:42:16;7.40;;;1.70;;
41705;SDS011;27385;51.096;17.190;2023-03-14T05:44:47;9.50;;;1.60;;
41705;SDS011;27385;51.096;17.190;2023-03-14T05:47:18;7.70;;;1.50;;
41705;SDS011;27385;51.096;17.190;2023-03-14T05:49:49;9.10;;;1.60;;
41705;SDS011;27385;51.096;17.190;2023-03-14T05:52:20;8.30;;;1.70;;
41705;SDS011;27385;51.096;17.190;2023-03-14T05:54:51;15.00;;;1.60;;
41705;SDS011;27385;51.096;17.190;2023-03-14T05:57:23;6.70;;;1.90;;
41705;SDS011;27385;51.096;17.190;2023-03-14T05:59:53;15.20;;;2.40;;
41705;SDS011;27385;51.096;17.190;2023-03-14T06:02:25;10.50;;;2.60;;
41705;SDS011;27385;51.096;17.190;2023-03-14T06:04:57;9.60;;;2.30;;
41705;SDS011;27385;51.096;17.190;2023-03-14T06:07:29;11.40;;;3.30;;
41705;SDS011;27385;51.096;17.190;2023-03-14T06:10:00;11.20;;;2.50;;
41705;SDS011;27385;51.096;17.190;2023-03-14T06:12:31;11.90;;;2.80;;
41705;SDS011;27385;51.096;17.190;2023-03-14T06:15:02;12.80;;;2.10;;
41705;SDS011;27385;51.096;17.190;2023-03-14T06:17:34;9.70;;;1.90;;
41705;SDS011;27385;51.096;17.190;2023-03-14T06:20:15;8.50;;;1.80;;
41705;SDS011;27385;51.096;17.190;2023-03-14T06:22:47;8.30;;;1.80;;
41705;SDS011;27385;51.096;17.190;2023-03-14T06:25:18;10.40;;;1.60;;
41705;SDS011;27385;51.096;17.190;2023-03-14T06:27:49;7.20;;;1.70;;
41705;SDS011;27385;51.096;17.190;2023-03-14T06:30:19;12.40;;;1.80;;
41705;SDS011;27385;51.096;17.190;2023-03-14T06:32:50;10.40;;;1.80;;
41705;SDS011;27385;51.096;17.190;2023-03-14T06:35:21;8.70;;;1.90;;
41705;SDS011;27385;51.096;17.190;2023-03-14T06:37:52;8.30;;;1.50;;
41705;SDS011;27385;51.096;17.190;2023-03-14T06:40:23;7.50;;;1.60;;
41705;SDS011;27385;51.096;17.190;2023-03-14T06:42:54;8.70;;;2.00;;
41705;SDS011;27385;51.096;17.190;2023-03-14T06:45:25;7.30;;;2.00;;
41705;SDS011;27385;51.096;17.190;2023-03-14T06:47:57;6.30;;;1.50;;
41705;SDS011;27385;51.096;17.190;2023-03-14T06:50:29;9.50;;;1.70;;
41705;SDS011;27385;51.096;17.190;2023-03-14T06:53:00;11.70;;;1.90;;
41705;SDS011;27385;51.096;17.190;2023-03-14T06:55:31;8.90;;;2.40;;
41705;SDS011;27385;51.096;17.190;2023-03-14T06:58:02;10.60;;;2.00;;
41705;SDS011;27385;51.096;17.190;2023-03-14T07:00:35;7.70;;;1.70;;
41705;SDS011;27385;51.096;17.190;2023-03-14T07:03:06;11.80;;;2.40;;
41705;SDS011;27385;51.096;17.190;2023-03-14T07:05:37;11.10;;;1.80;;
41705;SDS011;27385;51.096;17.190;2023-03-14T07:08:09;9.00;;;1.80;;
41705;SDS011;27385;51.096;17.190;2023-03-14T07:10:39;9.60;;;2.00;;
41705;SDS011;27385;51.096;17.190;2023-03-14T07:13:11;9.70;;;1.90;;
41705;SDS011;27385;51.096;17.190;2023-03-14T07:15:41;8.00;;;1.80;;
41705;SDS011;27385;51.096;17.190;2023-03-14T07:18:13;11.50;;;2.50;;
41705;SDS011;27385;51.096;17.190;2023-03-14T07:20:46;12.70;;;2.90;;
41705;SDS011;27385;51.096;17.190;2023-03-14T07:23:17;12.90;;;2.30;;
41705;SDS011;27385;51.096;17.190;2023-03-14T07:25:48;7.70;;;2.10;;
41705;SDS011;27385;51.096;17.190;2023-03-14T07:28:21;9.10;;;2.10;;
41705;SDS011;27385;51.096;17.190;2023-03-14T07:30:52;10.20;;;2.20;;
41705;SDS011;27385;51.096;17.190;2023-03-14T07:33:24;8.70;;;1.80;;
41705;SDS011;27385;51.096;17.190;2023-03-14T07:35:55;8.10;;;1.70;;
41705;SDS011;27385;51.096;17.190;2023-03-14T07:38:26;9.60;;;1.80;;
41705;SDS011;27385;51.096;17.190;2023-03-14T07:41:00;9.30;;;1.80;;
41705;SDS011;27385;51.096;17.190;2023-03-14T07:43:33;13.00;;;2.00;;
41705;SDS011;27385;51.096;17.190;2023-03-14T07:46:04;9.50;;;1.60;;
41705;SDS011;27385;51.096;17.190;2023-03-14T07:48:36;8.80;;;2.10;;
41705;SDS011;27385;51.096;17.190;2023-03-14T07:51:08;10.50;;;2.20;;
41705;SDS011;27385;51.096;17.190;2023-03-14T07:53:39;8.40;;;1.70;;
41705;SDS011;27385;51.096;17.190;2023-03-14T07:56:11;10.20;;;1.90;;
41705;SDS011;27385;51.096;17.190;2023-03-14T07:58:42;12.80;;;2.10;;
41705;SDS011;27385;51.096;17.190;2023-03-14T08:01:13;12.10;;;2.30;;
41705;SDS011;27385;51.096;17.190;2023-03-14T08:03:44;10.80;;;1.90;;
41705;SDS011;27385;51.096;17.190;2023-03-14T08:06:15;9.60;;;2.30;;
41705;SDS011;27385;51.096;17.190;2023-03-14T08:08:46;10.20;;;2.00;;
41705;SDS011;27385;51.096;17.190;2023-03-14T08:11:17;8.90;;;1.70;;
41705;SDS011;27385;51.096;17.190;2023-03-14T08:13:48;11.80;;;2.50;;
41705;SDS011;27385;51.096;17.190;2023-03-14T08:16:20;14.70;;;2.30;;
41705;SDS011;27385;51.096;17.190;2023-03-14T08:18:51;14.00;;;2.50;;
41705;SDS011;27385;51.096;17.190;2023-03-14T08:21:22;11.80;;;2.50;;
41705;SDS011;27385;51.096;17.190;2023-03-14T08:23:53;17.30;;;2.90;;
41705;SDS011;27385;51.096;17.190;2023-03-14T08:26:24;9.10;;;2.10;;
41705;SDS011;27385;51.096;17.190;2023-03-14T08:28:56;13.10;;;2.50;;
41705;SDS011;27385;51.096;17.190;2023-03-14T08:31:27;11.10;;;2.60;;
41705;SDS011;27385;51.096;17.190;2023-03-14T08:33:59;13.70;;;2.90;;
41705;SDS011;27385;51.096;17.190;2023-03-14T08:36:31;10.90;;;2.80;;
41705;SDS011;27385;51.096;17.190;2023-03-14T08:39:02;13.50;;;2.50;;
41705;SDS011;27385;51.096;17.190;2023-03-14T08:41:35;13.00;;;2.70;;
41705;SDS011;27385;51.096;17.190;2023-03-14T08:44:08;12.10;;;3.40;;
41705;SDS011;27385;51.096;17.190;2023-03-14T08:46:40;18.20;;;3.20;;
41705;SDS011;27385;51.096;17.190;2023-03-14T08:49:11;10.60;;;2.60;;
41705;SDS011;27385;51.096;17.190;2023-03-14T08:51:42;9.50;;;2.30;;
41705;SDS011;27385;51.096;17.190;2023-03-14T08:54:14;15.10;;;3.00;;
41705;SDS011;27385;51.096;17.190;2023-03-14T08:56:46;12.10;;;2.60;;
41705;SDS011;27385;51.096;17.190;2023-03-14T08:59:17;13.50;;;3.40;;
41705;SDS011;27385;51.096;17.190;2023-03-14T09:01:48;14.60;;;3.40;;
41705;SDS011;27385;51.096;17.190;2023-03-14T09:04:19;12.50;;;3.00;;
41705;SDS011;27385;51.096;17.190;2023-03-14T09:06:50;12.00;;;3.20;;
41705;SDS011;27385;51.096;17.190;2023-03-14T09:09:22;17.60;;;3.90;;
41705;SDS011;27385;51.096;17.190;2023-03-14T09:11:54;11.70;;;2.80;;
41705;SDS011;27385;51.096;17.190;2023-03-14T09:14:26;12.40;;;2.80;;
41705;SDS011;27385;51.096;17.190;2023-03-14T09:16:56;11.30;;;2.60;;
41705;SDS011;27385;51.096;17.190;2023-03-14T09:19:27;12.20;;;2.60;;
41705;SDS011;27385;51.096;17.190;2023-03-14T09:21:58;11.90;;;2.40;;
41705;SDS011;27385;51.096;17.190;2023-03-14T09:24:29;13.50;;;3.00;;
41705;SDS011;27385;51.096;17.190;2023-03-14T09:27:00;14.40;;;3.30;;
41705;SDS011;27385;51.096;17.190;2023-03-14T09:29:31;14.90;;;4.00;;
41705;SDS011;27385;51.096;17.190;2023-03-14T09:32:02;16.70;;;4.30;;
41705;SDS011;27385;51.096;17.190;2023-03-14T09:34:34;13.90;;;4.10;;
41705;SDS011;27385;51.096;17.190;2023-03-14T09:37:06;16.20;;;4.40;;
41705;SDS011;27385;51.096;17.190;2023-03-14T09:39:37;16.50;;;3.70;;
41705;SDS011;27385;51.096;17.190;2023-03-14T09:42:08;14.10;;;4.70;;
41705;SDS011;27385;51.096;17.190;2023-03-14T09:44:45;15.90;;;3.70;;
41705;SDS011;27385;51.096;17.190;2023-03-14T09:47:22;8.90;;;2.20;;
41705;SDS011;27385;51.096;17.190;2023-03-14T09:49:55;9.80;;;2.40;;
41705;SDS011;27385;51.096;17.190;2023-03-14T09:52:30;13.20;;;2.70;;
41705;SDS011;27385;51.096;17.190;2023-03-14T09:55:06;12.80;;;3.20;;
41705;SDS011;27385;51.096;17.190;2023-03-14T09:57:42;11.40;;;2.60;;
41705;SDS011;27385;51.096;17.190;2023-03-14T10:00:16;11.50;;;2.50;;
41705;SDS011;27385;51.096;17.190;2023-03-14T10:02:52;11.90;;;3.20;;
41705;SDS011;27385;51.096;17.190;2023-03-14T10:05:25;12.50;;;2.30;;
41705;SDS011;27385;51.096;17.190;2023-03-14T10:07:57;14.10;;;3.20;;
41705;SDS011;27385;51.096;17.190;2023-03-14T10:10:28;10.70;;;3.30;;
41705;SDS011;27385;51.096;17.190;2023-03-14T10:13:04;16.40;;;4.00;;
41705;SDS011;27385;51.096;17.190;2023-03-14T10:15:48;12.70;;;3.40;;
41705;SDS011;27385;51.096;17.190;2023-03-14T10:18:23;12.10;;;3.30;;
41705;SDS011;27385;51.096;17.190;2023-03-14T10:21:03;12.40;;;2.80;;
41705;SDS011;27385;51.096;17.190;2023-03-14T10:23:36;13.50;;;3.10;;
41705;SDS011;27385;51.096;17.190;2023-03-14T10:26:12;12.20;;;2.40;;
41705;SDS011;27385;51.096;17.190;2023-03-14T10:28:44;11.30;;;2.70;;
41705;SDS011;27385;51.096;17.190;2023-03-14T10:31:19;14.40;;;3.60;;
41705;SDS011;27385;51.096;17.190;2023-03-14T10:33:58;13.30;;;4.10;;
41705;SDS011;27385;51.096;17.190;2023-03-14T10:36:31;12.90;;;3.50;;
41705;SDS011;27385;51.096;17.190;2023-03-14T10:39:15;15.40;;;3.40;;
41705;SDS011;27385;51.096;17.190;2023-03-14T10:41:55;16.10;;;3.20;;
41705;SDS011;27385;51.096;17.190;2023-03-14T10:44:34;13.30;;;3.00;;
41705;SDS011;27385;51.096;17.190;2023-03-14T10:47:12;16.60;;;3.50;;
41705;SDS011;27385;51.096;17.190;2023-03-14T10:49:48;15.20;;;3.40;;
41705;SDS011;27385;51.096;17.190;2023-03-14T10:52:21;12.90;;;3.40;;
41705;SDS011;27385;51.096;17.190;2023-03-14T10:54:56;12.80;;;2.70;;
41705;SDS011;27385;51.096;17.190;2023-03-14T10:57:29;11.20;;;2.80;;
41705;SDS011;27385;51.096;17.190;2023-03-14T11:00:00;12.00;;;3.40;;
41705;SDS011;27385;51.096;17.190;2023-03-14T11:02:39;11.70;;;3.70;;
41705;SDS011;27385;51.096;17.190;2023-03-14T11:05:23;14.30;;;3.30;;
41705;SDS011;27385;51.096;17.190;2023-03-14T11:08:01;16.20;;;3.60;;
41705;SDS011;27385;51.096;17.190;2023-03-14T11:10:38;12.50;;;3.20;;
41705;SDS011;27385;51.096;17.190;2023-03-14T11:13:15;13.80;;;3.20;;
41705;SDS011;27385;51.096;17.190;2023-03-14T11:15:57;10.50;;;2.70;;
41705;SDS011;27385;51.096;17.190;2023-03-14T11:21:45;8.20;;;2.70;;
41705;SDS011;27385;51.096;17.190;2023-03-14T11:24:27;8.80;;;2.30;;
41705;SDS011;27385;51.096;17.190;2023-03-14T11:27:13;12.10;;;2.50;;
41705;SDS011;27385;51.096;17.190;2023-03-14T11:29:55;14.30;;;3.00;;
41705;SDS011;27385;51.096;17.190;2023-03-14T11:32:40;10.90;;;2.70;;
41705;SDS011;27385;51.096;17.190;2023-03-14T11:35:17;14.50;;;2.70;;
41705;SDS011;27385;51.096;17.190;2023-03-14T11:37:54;11.80;;;3.10;;
41705;SDS011;27385;51.096;17.190;2023-03-14T11:40:32;11.50;;;3.10;;
41705;SDS011;27385;51.096;17.190;2023-03-14T11:43:06;11.40;;;2.50;;
41705;SDS011;27385;51.096;17.190;2023-03-14T11:45:42;15.10;;;2.90;;
41705;SDS011;27385;51.096;17.190;2023-03-14T11:48:22;11.50;;;2.60;;
41705;SDS011;27385;51.096;17.190;2023-03-14T11:51:01;11.80;;;2.80;;
41705;SDS011;27385;51.096;17.190;2023-03-14T11:53:39;12.20;;;2.70;;
41705;SDS011;27385;51.096;17.190;2023-03-14T11:56:18;14.40;;;2.70;;
41705;SDS011;27385;51.096;17.190;2023-03-14T11:58:56;9.00;;;2.00;;
41705;SDS011;27385;51.096;17.190;2023-03-14T12:01:34;7.40;;;2.00;;
41705;SDS011;27385;51.096;17.190;2023-03-14T12:04:20;9.00;;;1.60;;
41705;SDS011;27385;51.096;17.190;2023-03-14T12:07:01;8.20;;;1.70;;
41705;SDS011;27385;51.096;17.190;2023-03-14T12:09:38;7.00;;;1.90;;
41705;SDS011;27385;51.096;17.190;2023-03-14T12:12:11;8.10;;;1.70;;
41705;SDS011;27385;51.096;17.190;2023-03-14T12:14:51;11.70;;;2.20;;
41705;SDS011;27385;51.096;17.190;2023-03-14T12:17:26;11.00;;;2.00;;
41705;SDS011;27385;51.096;17.190;2023-03-14T12:20:11;10.50;;;2.90;;
41705;SDS011;27385;51.096;17.190;2023-03-14T12:22:49;7.70;;;2.00;;
41705;SDS011;27385;51.096;17.190;2023-03-14T12:25:22;9.90;;;2.20;;
41705;SDS011;27385;51.096;17.190;2023-03-14T12:28:11;10.20;;;2.00;;
41705;SDS011;27385;51.096;17.190;2023-03-14T12:30:48;10.40;;;2.70;;
41705;SDS011;27385;51.096;17.190;2023-03-14T12:33:27;9.70;;;2.20;;
41705;SDS011;27385;51.096;17.190;2023-03-14T12:39:13;9.70;;;2.40;;
41705;SDS011;27385;51.096;17.190;2023-03-14T12:41:51;8.20;;;2.40;;
41705;SDS011;27385;51.096;17.190;2023-03-14T12:44:45;11.10;;;2.60;;
41705;SDS011;27385;51.096;17.190;2023-03-14T12:50:20;12.30;;;2.60;;
41705;SDS011;27385;51.096;17.190;2023-03-14T12:56:15;9.60;;;1.90;;
41705;SDS011;27385;51.096;17.190;2023-03-14T12:58:58;8.60;;;2.20;;
41705;SDS011;27385;51.096;17.190;2023-03-14T13:01:47;10.80;;;2.00;;
41705;SDS011;27385;51.096;17.190;2023-03-14T13:04:31;9.20;;;2.00;;
41705;SDS011;27385;51.096;17.190;2023-03-14T13:07:04;6.70;;;1.50;;
41705;SDS011;27385;51.096;17.190;2023-03-14T13:12:36;9.40;;;2.00;;
41705;SDS011;27385;51.096;17.190;2023-03-14T13:18:09;7.10;;;1.80;;
41705;SDS011;27385;51.096;17.190;2023-03-14T13:20:44;10.20;;;2.00;;
41705;SDS011;27385;51.096;17.190;2023-03-14T13:23:22;8.10;;;1.90;;
41705;SDS011;27385;51.096;17.190;2023-03-14T13:25:54;8.70;;;1.70;;
41705;SDS011;27385;51.096;17.190;2023-03-14T13:28:27;8.80;;;1.90;;
41705;SDS011;27385;51.096;17.190;2023-03-14T13:31:00;6.80;;;1.90;;
41705;SDS011;27385;51.096;17.190;2023-03-14T13:33:34;6.30;;;1.70;;
41705;SDS011;27385;51.096;17.190;2023-03-14T13:36:05;7.60;;;1.60;;
41705;SDS011;27385;51.096;17.190;2023-03-14T13:38:38;8.80;;;1.70;;
41705;SDS011;27385;51.096;17.190;2023-03-14T13:41:11;7.20;;;1.70;;
41705;SDS011;27385;51.096;17.190;2023-03-14T13:43:43;6.70;;;1.30;;
41705;SDS011;27385;51.096;17.190;2023-03-14T13:46:15;9.00;;;1.70;;
41705;SDS011;27385;51.096;17.190;2023-03-14T13:48:50;7.70;;;1.60;;
41705;SDS011;27385;51.096;17.190;2023-03-14T13:51:23;9.00;;;1.80;;
41705;SDS011;27385;51.096;17.190;2023-03-14T13:53:59;6.60;;;1.70;;
41705;SDS011;27385;51.096;17.190;2023-03-14T13:56:32;9.20;;;2.10;;
41705;SDS011;27385;51.096;17.190;2023-03-14T13:59:03;9.90;;;1.70;;
41705;SDS011;27385;51.096;17.190;2023-03-14T14:01:47;9.50;;;2.00;;
41705;SDS011;27385;51.096;17.190;2023-03-14T14:04:21;8.20;;;2.00;;
41705;SDS011;27385;51.096;17.190;2023-03-14T14:06:56;10.00;;;1.70;;
41705;SDS011;27385;51.096;17.190;2023-03-14T14:09:29;6.80;;;1.90;;
41705;SDS011;27385;51.096;17.190;2023-03-14T14:12:06;9.40;;;2.10;;
41705;SDS011;27385;51.096;17.190;2023-03-14T14:14:42;7.90;;;1.50;;
41705;SDS011;27385;51.096;17.190;2023-03-14T14:17:16;8.50;;;1.90;;
41705;SDS011;27385;51.096;17.190;2023-03-14T14:19:51;10.30;;;2.20;;
41705;SDS011;27385;51.096;17.190;2023-03-14T14:22:24;7.10;;;1.70;;
41705;SDS011;27385;51.096;17.190;2023-03-14T14:24:55;9.10;;;2.30;;
41705;SDS011;27385;51.096;17.190;2023-03-14T14:27:32;12.70;;;2.40;;
41705;SDS011;27385;51.096;17.190;2023-03-14T14:30:24;9.80;;;2.20;;
41705;SDS011;27385;51.096;17.190;2023-03-14T14:35:53;8.80;;;2.00;;
41705;SDS011;27385;51.096;17.190;2023-03-14T14:38:26;8.10;;;1.70;;
41705;SDS011;27385;51.096;17.190;2023-03-14T14:41:00;11.80;;;2.00;;
41705;SDS011;27385;51.096;17.190;2023-03-14T14:43:36;10.30;;;2.40;;
41705;SDS011;27385;51.096;17.190;2023-03-14T14:46:09;16.80;;;3.70;;
41705;SDS011;27385;51.096;17.190;2023-03-14T14:48:46;15.90;;;4.90;;
41705;SDS011;27385;51.096;17.190;2023-03-14T14:51:26;14.40;;;3.90;;
41705;SDS011;27385;51.096;17.190;2023-03-14T14:54:04;12.10;;;3.20;;
41705;SDS011;27385;51.096;17.190;2023-03-14T14:56:50;13.20;;;3.40;;
41705;SDS011;27385;51.096;17.190;2023-03-14T14:59:23;15.90;;;3.80;;
41705;SDS011;27385;51.096;17.190;2023-03-14T15:01:57;10.60;;;2.90;;
41705;SDS011;27385;51.096;17.190;2023-03-14T15:04:31;14.90;;;3.80;;
41705;SDS011;27385;51.096;17.190;2023-03-14T15:07:02;12.00;;;2.70;;
41705;SDS011;27385;51.096;17.190;2023-03-14T15:09:33;9.50;;;2.30;;
41705;SDS011;27385;51.096;17.190;2023-03-14T15:12:05;14.50;;;4.10;;
41705;SDS011;27385;51.096;17.190;2023-03-14T15:14:36;10.60;;;2.90;;
41705;SDS011;27385;51.096;17.190;2023-03-14T15:17:09;12.90;;;2.90;;
41705;SDS011;27385;51.096;17.190;2023-03-14T15:19:42;13.60;;;3.50;;
41705;SDS011;27385;51.096;17.190;2023-03-14T15:22:13;11.30;;;3.00;;
41705;SDS011;27385;51.096;17.190;2023-03-14T15:24:44;9.20;;;2.00;;
41705;SDS011;27385;51.096;17.190;2023-03-14T15:27:16;10.70;;;2.90;;